Friday, November 24, 2017, 12:14 AM GMT
Back to Local

CYQB, Quebec, Que

Location: , , Canada Lat: 46.8
Local Time: 12:14 AM GMT ( 0:14 GMT) Lon: -71.383
Time Zone: GMT Elev: 229 ft

Show me the last for .
Show Decoded

2017-11-24 00:00 METAR CYQB 240000Z 24008KT 4SM -SHSN BKN020 OVC040 M04/M08 A2987 RMK SC6SC2
                 CVCTV CLDS EMBB SLP121 =
2017-11-23 23:08 METAR CYQB 232308Z 23010KT 10SM -SHSN OVC025 M04/M09 A2988 RMK SC8 CVCTV CLDS
                 EMDD SLP125 =
2017-11-23 23:00 METAR CYQB 232300Z 23009KT 15SM OVC025 M04/M09 A2988 RMK SC8 SLP126 =
2017-11-23 22:00 METAR CYQB 232200Z 23011KT 15SM BKN024 OVC120 M04/M09 A2989 RMK SC6AC2 SLP128 =
2017-11-23 21:00 METAR CYQB 232100Z 24012KT 30SM SCT035 BKN120 M04/M10 A2991 RMK SC4AC3 SLP135 =
2017-11-23 20:00 METAR CYQB 232000Z 25016G21KT 30SM FEW028 SCT140 BKN240 M04/M11 A2991 RMK
                 SC2AC2CI2 SLP135 =
2017-11-23 19:00 METAR CYQB 231900Z 25014KT 30SM SCT028 BKN130 BKN260 M03/M10 A2992 RMK SC3AC3CI1
                 SLP138 =
2017-11-23 18:00 METAR CYQB 231800Z 24013KT 30SM SCT028 BKN150 M04/M11 A2994 RMK SC3AC4 SLP146 =
2017-11-23 17:00 METAR CYQB 231700Z 24014KT 30SM SCT030 BKN140 M04/M11 A2995 RMK SC4AC3 SLP149 =
2017-11-23 16:00 METAR CYQB 231600Z 26015KT 30SM SCT030 BKN260 M05/M11 A2999 RMK SC4CI3 SLP162 =
2017-11-23 15:00 METAR CYQB 231500Z 25017KT 30SM SCT028 BKN260 M05/M12 A3002 RMK SC4CI3 SLP171 =
2017-11-23 14:00 METAR CYQB 231400Z 26014KT 30SM SCT035 BKN220 M06/M11 A3002 RMK SC3CI2 SLP173 =
2017-11-23 13:00 METAR CYQB 231300Z 25013KT 30SM BKN034 M07/M11 A3002 RMK SC6 SLP170 =
2017-11-23 12:00 METAR CYQB 231200Z 25010KT 30SM BKN032 M07/M11 A3000 RMK SC7 SLP165 =
2017-11-23 11:00 METAR CYQB 231100Z 25010KT 15SM SCT034 M08/M12 A2999 RMK SC4 SLP163 =
2017-11-23 10:00 METAR CYQB 231000Z 25011KT 15SM BKN032 M07/M11 A3000 RMK SC5 SLP164 =
2017-11-23 09:00 METAR CYQB 230900Z 25010KT 15SM SCT028 M08/M11 A2998 RMK SC3 SLP159 =
2017-11-23 08:00 METAR CYQB 230800Z 27008KT 15SM FEW028 M07/M11 A2997 RMK SC2 SLP156 =
2017-11-23 07:00 METAR CYQB 230700Z 27012KT 15SM FEW028 M06/M12 A2997 RMK SC1 SLP154 =
2017-11-23 06:00 METAR CYQB 230600Z 28010KT 15SM SKC M06/M11 A2996 RMK SLP152 =
2017-11-23 05:00 METAR CYQB 230500Z 30011KT 15SM SKC M05/M11 A2995 RMK SLP148 =
2017-11-23 04:00 METAR CYQB 230400Z 31010G16KT 15SM SKC M05/M10 A2994 RMK SLP145 =
2017-11-23 03:00 METAR CYQB 230300Z 31008G18KT 15SM FEW058 M04/M09 A2994 RMK SC2 SLP146 =
2017-11-23 02:00 METAR CYQB 230200Z 30006KT 250V330 15SM FEW033 BKN058 M03/M08 A2994 RMK SC1SC6
                 SC TR SLP146 =
2017-11-23 01:00 METAR CYQB 230100Z 33009G16KT 15SM OVC056 M01/M06 A2993 RMK SC8 SLP142 =

Support USWX by starting your Amazon purchase here.